createdAt,value
2022-12-07T00:03:46.950Z,9.43
2022-12-07T00:08:50.397Z,8.83
2022-12-07T00:13:54.906Z,9.13
2022-12-07T00:18:59.432Z,7.50
2022-12-07T00:24:03.663Z,8.53
2022-12-07T00:29:10.855Z,7.97
2022-12-07T00:34:16.714Z,9.17
2022-12-07T00:39:19.923Z,8.20
2022-12-07T00:44:22.903Z,8.50
2022-12-07T00:49:27.167Z,9.57
2022-12-07T00:54:30.278Z,8.40
2022-12-07T00:59:33.223Z,8.30
2022-12-07T01:04:37.547Z,9.57
2022-12-07T01:09:40.496Z,9.03
2022-12-07T01:14:44.017Z,9.63
2022-12-07T01:19:48.259Z,9.67
2022-12-07T01:24:51.183Z,9.50
2022-12-07T01:29:54.056Z,9.10
2022-12-07T01:34:58.352Z,8.23
2022-12-07T01:40:01.532Z,7.93
2022-12-07T01:45:41.614Z,7.50
2022-12-07T01:50:49.109Z,7.33
2022-12-07T01:55:54.655Z,7.67
2022-12-07T02:00:57.597Z,7.30
2022-12-07T02:06:02.367Z,6.97
2022-12-07T02:11:07.376Z,6.67
2022-12-07T02:16:27.089Z,5.93
2022-12-07T02:21:39.444Z,5.60
2022-12-07T02:27:16.821Z,6.53
2022-12-07T02:32:25.155Z,6.33
2022-12-07T02:37:36.936Z,6.47
2022-12-07T02:42:45.005Z,8.30
2022-12-07T02:47:52.854Z,7.77
2022-12-07T02:52:55.803Z,8.83
2022-12-07T02:58:20.125Z,9.83
2022-12-07T03:03:25.324Z,9.13
2022-12-07T03:08:38.255Z,9.23
2022-12-07T03:13:48.179Z,9.23
2022-12-07T03:18:57.942Z,9.97
2022-12-07T03:24:05.658Z,9.70
2022-12-07T03:29:11.086Z,8.73
2022-12-07T03:34:22.855Z,8.30
2022-12-07T03:39:30.582Z,8.80
2022-12-07T03:44:35.115Z,8.50
2022-12-07T03:49:45.879Z,8.50
2022-12-07T03:54:54.615Z,9.70
2022-12-07T03:59:59.491Z,7.97
2022-12-07T04:05:04.177Z,8.77
2022-12-07T04:10:08.178Z,7.90
2022-12-07T04:15:11.735Z,8.63
2022-12-07T04:20:16.236Z,7.90
2022-12-07T04:25:19.140Z,8.23
2022-12-07T04:30:22.086Z,9.80
2022-12-07T04:35:26.390Z,8.43
2022-12-07T04:40:29.318Z,10.50
2022-12-07T04:45:32.444Z,8.43
2022-12-07T04:50:44.503Z,12.57
2022-12-07T04:55:49.148Z,8.57
2022-12-07T05:00:52.218Z,8.60
2022-12-07T05:05:56.518Z,7.13
2022-12-07T05:10:59.435Z,7.50
2022-12-07T05:16:02.465Z,6.70
2022-12-07T05:21:07.054Z,7.20
2022-12-07T05:26:10.109Z,6.40
2022-12-07T05:31:13.298Z,6.30
2022-12-07T05:36:17.792Z,5.77
2022-12-07T05:41:39.304Z,5.90
2022-12-07T05:46:42.192Z,4.97
2022-12-07T05:51:46.586Z,5.60
2022-12-07T05:56:49.544Z,5.50
2022-12-07T06:01:53.439Z,5.40
2022-12-07T06:06:58.402Z,4.60
2022-12-07T06:12:19.812Z,4.43
2022-12-07T06:17:22.779Z,4.43
2022-12-07T06:22:27.017Z,4.43
2022-12-07T06:27:29.936Z,4.90
2022-12-07T06:32:33.271Z,5.27
2022-12-07T06:37:37.571Z,4.97
2022-12-07T06:42:40.541Z,4.10
2022-12-07T06:47:43.757Z,5.40
2022-12-07T06:52:49.731Z,4.80
2022-12-07T06:57:52.706Z,4.23
2022-12-07T07:02:55.716Z,4.37
2022-12-07T07:08:27.080Z,5.33
2022-12-07T07:13:22.858Z,4.60
2022-12-07T07:18:26.648Z,4.30
2022-12-07T07:23:31.206Z,4.67
2022-12-07T07:28:34.245Z,4.57
2022-12-07T07:33:37.128Z,4.20
2022-12-07T07:38:41.456Z,4.37
2022-12-07T07:43:44.608Z,5.00
2022-12-07T07:48:47.618Z,5.00
2022-12-07T07:53:51.843Z,5.20
2022-12-07T07:58:54.862Z,5.40
2022-12-07T08:03:57.769Z,6.50
2022-12-07T08:09:02.092Z,6.67
2022-12-07T08:14:05.071Z,6.87
2022-12-07T08:19:08.019Z,7.63
2022-12-07T08:24:12.571Z,7.70
2022-12-07T08:29:15.507Z,7.90
2022-12-07T08:34:18.516Z,7.67
2022-12-07T08:39:31.251Z,8.27
2022-12-07T08:44:35.203Z,8.50
2022-12-07T08:49:41.427Z,7.40
2022-12-07T08:54:46.763Z,7.20
2022-12-07T08:59:49.628Z,7.77
2022-12-07T09:04:52.619Z,6.87
2022-12-07T09:09:57.000Z,7.87
2022-12-07T09:15:03.599Z,7.10
2022-12-07T09:20:08.202Z,7.50
2022-12-07T09:25:12.643Z,7.10
2022-12-07T09:30:15.785Z,5.80
2022-12-07T09:35:18.747Z,6.20
2022-12-07T09:40:25.228Z,5.97
2022-12-07T09:45:34.945Z,5.97
2022-12-07T09:50:37.837Z,6.40
2022-12-07T09:55:43.848Z,6.60
2022-12-07T10:00:47.124Z,5.70
2022-12-07T10:05:52.772Z,5.60
2022-12-07T10:10:58.394Z,5.57
2022-12-07T10:16:06.890Z,5.67
2022-12-07T10:21:15.810Z,5.87
2022-12-07T10:26:30.261Z,5.30
2022-12-07T10:31:33.641Z,5.87
2022-12-07T10:36:38.827Z,5.70
2022-12-07T10:41:57.351Z,5.83
2022-12-07T10:47:19.604Z,5.50
2022-12-07T10:52:35.208Z,5.33
2022-12-07T10:57:52.552Z,5.40
2022-12-07T11:03:19.086Z,6.27
2022-12-07T11:08:41.449Z,5.90
2022-12-07T11:13:54.953Z,5.47
2022-12-07T11:19:15.342Z,5.27
2022-12-07T11:24:20.053Z,5.00
2022-12-07T11:29:39.061Z,5.63
2022-12-07T11:34:50.364Z,6.87
2022-12-07T11:39:57.703Z,6.90
2022-12-07T11:45:04.700Z,5.80
2022-12-07T11:50:27.378Z,6.60
2022-12-07T11:55:41.465Z,6.10
2022-12-07T12:00:46.243Z,6.20
2022-12-07T12:05:50.693Z,6.20
2022-12-07T12:11:00.173Z,6.20
2022-12-07T12:16:41.502Z,5.47
2022-12-07T12:21:45.994Z,7.10
2022-12-07T12:26:54.905Z,6.00
2022-12-07T12:32:15.437Z,6.47
2022-12-07T12:37:46.739Z,5.73
2022-12-07T12:42:52.099Z,6.00
2022-12-07T12:48:01.837Z,4.20
2022-12-07T12:53:15.067Z,4.10
2022-12-07T12:58:33.619Z,4.30
2022-12-07T13:03:38.119Z,4.20
2022-12-07T13:08:43.808Z,4.97
2022-12-07T13:13:46.740Z,5.67
2022-12-07T13:18:51.016Z,6.03
2022-12-07T13:24:01.218Z,5.37
2022-12-07T13:29:12.481Z,5.30
2022-12-07T13:34:34.376Z,5.17
2022-12-07T13:39:46.463Z,5.50
2022-12-07T13:44:49.428Z,4.33
2022-12-07T13:49:56.062Z,6.00
2022-12-07T13:55:01.661Z,4.60
2022-12-07T14:00:07.868Z,5.00
2022-12-07T14:05:17.085Z,5.50
2022-12-07T14:10:32.187Z,6.17
2022-12-07T14:15:36.818Z,6.43
2022-12-07T14:20:43.134Z,3.67
2022-12-07T14:25:51.877Z,3.17
2022-12-07T14:30:55.069Z,3.33
2022-12-07T14:35:59.648Z,2.50
2022-12-07T14:41:16.583Z,2.53
2022-12-07T14:46:19.599Z,2.33
2022-12-07T14:56:50.308Z,7.40
2022-12-07T15:01:53.263Z,8.83
2022-12-07T15:07:02.315Z,7.83
2022-12-07T15:12:05.529Z,5.60
2022-12-07T15:17:10.801Z,2.97
2022-12-07T15:22:19.319Z,3.40
2022-12-07T15:27:22.319Z,3.50
2022-12-07T15:32:25.296Z,2.93
2022-12-07T15:37:29.547Z,3.10
2022-12-07T15:42:32.440Z,2.50
2022-12-07T15:48:02.303Z,3.03
2022-12-07T15:53:02.263Z,3.53
2022-12-07T15:58:05.151Z,4.50
2022-12-07T16:03:08.071Z,3.23
2022-12-07T16:08:12.466Z,3.73
2022-12-07T16:13:15.515Z,3.17
2022-12-07T16:18:18.433Z,3.57
2022-12-07T16:23:22.729Z,3.37
2022-12-07T16:28:25.601Z,2.50
2022-12-07T16:33:28.523Z,2.87
2022-12-07T16:38:32.886Z,2.93
2022-12-07T16:43:36.723Z,3.27
2022-12-07T16:48:41.190Z,2.40
2022-12-07T16:53:45.558Z,3.23
2022-12-07T16:58:50.208Z,3.10
2022-12-07T17:03:53.166Z,2.70
2022-12-07T17:08:59.218Z,3.90
2022-12-07T17:14:19.732Z,3.03
2022-12-07T17:19:22.647Z,3.63
2022-12-07T17:24:27.195Z,4.07
2022-12-07T17:29:30.149Z,3.87
2022-12-07T17:34:33.018Z,3.70
2022-12-07T17:39:37.316Z,3.70
2022-12-07T17:44:40.186Z,3.40
2022-12-07T17:49:43.154Z,3.80
2022-12-07T17:54:47.526Z,9.57
2022-12-07T17:59:51.230Z,5.57
2022-12-07T18:04:54.178Z,4.50
2022-12-07T18:09:58.760Z,6.57
2022-12-07T18:15:02.266Z,4.80
2022-12-07T18:20:06.666Z,6.23
2022-12-07T18:25:11.141Z,3.47
2022-12-07T18:30:14.888Z,2.90
2022-12-07T18:35:18.039Z,3.30
2022-12-07T18:40:22.327Z,2.60
2022-12-07T18:45:25.357Z,4.53
2022-12-07T18:50:28.440Z,4.30
2022-12-07T18:55:33.261Z,2.70
2022-12-07T19:00:36.521Z,2.60
2022-12-07T19:05:39.911Z,3.17
2022-12-07T19:10:44.313Z,3.87
2022-12-07T19:15:47.347Z,4.90
2022-12-07T19:20:50.276Z,4.37
2022-12-07T19:25:56.999Z,5.20
2022-12-07T19:30:59.929Z,3.97
2022-12-07T19:36:02.799Z,4.50
2022-12-07T19:41:08.015Z,4.27
2022-12-07T19:46:11.024Z,4.17
2022-12-07T19:51:14.103Z,4.50
2022-12-07T19:56:19.757Z,3.50
2022-12-07T20:01:23.246Z,4.23
2022-12-07T20:06:26.468Z,4.70
2022-12-07T20:11:48.324Z,4.30
2022-12-07T20:16:51.698Z,4.30
2022-12-07T20:21:54.648Z,4.70
2022-12-07T20:26:58.939Z,3.80
2022-12-07T20:32:02.528Z,4.23
2022-12-07T20:37:05.735Z,3.90
2022-12-07T20:42:27.472Z,3.80
2022-12-07T20:47:30.461Z,6.07
2022-12-07T20:52:33.368Z,3.40
2022-12-07T20:57:37.681Z,4.30
2022-12-07T21:02:42.486Z,3.70
2022-12-07T21:07:46.015Z,4.20
2022-12-07T21:12:55.527Z,3.80
2022-12-07T21:18:01.538Z,4.60
2022-12-07T21:23:08.862Z,3.70
2022-12-07T21:28:13.183Z,4.30
2022-12-07T21:33:16.576Z,4.70
2022-12-07T21:38:19.497Z,4.80
2022-12-07T21:43:23.875Z,4.33
2022-12-07T21:48:26.769Z,4.47
2022-12-07T21:53:29.628Z,4.60
2022-12-07T21:58:33.936Z,3.87
2022-12-07T22:03:36.901Z,4.20
2022-12-07T22:08:39.844Z,4.37
2022-12-07T22:14:09.642Z,4.77
2022-12-07T22:19:13.469Z,4.37
2022-12-07T22:24:16.727Z,4.00
2022-12-07T22:29:22.006Z,4.30
2022-12-07T22:34:25.060Z,3.30
2022-12-07T22:39:28.219Z,3.80
2022-12-07T22:44:32.490Z,3.70
2022-12-07T22:49:35.437Z,4.10
2022-12-07T22:54:38.381Z,3.33
2022-12-07T22:59:43.409Z,3.93
2022-12-07T23:04:46.357Z,4.50
2022-12-07T23:09:49.221Z,3.77
2022-12-07T23:14:54.636Z,4.00
2022-12-07T23:19:57.542Z,3.87
2022-12-07T23:25:00.749Z,4.53
2022-12-07T23:30:06.278Z,5.17
2022-12-07T23:35:09.658Z,4.40
2022-12-07T23:40:12.666Z,4.63
2022-12-07T23:45:17.250Z,4.17
2022-12-07T23:50:20.204Z,4.20
2022-12-07T23:55:23.152Z,5.33
